createdAt,value
2019-06-27T00:05:01.258Z,53.71
2019-06-27T00:10:08.561Z,53.44
2019-06-27T00:15:17.565Z,53.57
2019-06-27T00:20:25.638Z,53.49
2019-06-27T00:25:36.732Z,52.90
2019-06-27T00:30:46.433Z,52.54
2019-06-27T00:35:52.564Z,52.28
2019-06-27T00:40:58.595Z,52.61
2019-06-27T00:46:05.010Z,52.45
2019-06-27T00:51:14.852Z,52.23
2019-06-27T00:56:24.098Z,53.19
2019-06-27T01:01:32.408Z,53.38
2019-06-27T01:06:38.482Z,53.44
2019-06-27T01:11:45.077Z,53.71
2019-06-27T01:16:53.735Z,53.84
2019-06-27T01:22:00.687Z,53.90
2019-06-27T01:27:09.971Z,53.94
2019-06-27T01:32:17.279Z,53.78
2019-06-27T01:37:25.702Z,53.66
2019-06-27T01:42:36.186Z,53.66
2019-06-27T01:47:46.433Z,53.69
2019-06-27T01:52:52.680Z,53.70
2019-06-27T01:58:01.109Z,53.54
2019-06-27T02:03:08.668Z,53.59
2019-06-27T02:08:17.341Z,53.35
2019-06-27T02:13:24.348Z,53.73
2019-06-27T02:18:32.317Z,53.55
2019-06-27T02:23:44.125Z,53.55
2019-06-27T02:28:50.486Z,53.93
2019-06-27T02:33:56.860Z,54.38
2019-06-27T02:39:05.374Z,53.91
2019-06-27T02:44:11.565Z,54.12
2019-06-27T02:49:24.735Z,53.55
2019-06-27T02:54:30.210Z,53.46
2019-06-27T02:59:36.976Z,52.98
2019-06-27T03:04:44.053Z,53.55
2019-06-27T03:09:49.490Z,53.25
2019-06-27T03:14:55.079Z,53.29
2019-06-27T03:20:01.514Z,53.68
2019-06-27T03:25:08.101Z,53.99
2019-06-27T03:30:13.851Z,53.66
2019-06-27T03:35:19.539Z,53.92
2019-06-27T03:40:30.111Z,54.33
2019-06-27T03:45:37.980Z,54.12
2019-06-27T03:50:48.155Z,53.88
2019-06-27T03:55:54.233Z,53.51
2019-06-27T04:00:59.871Z,53.67
2019-06-27T04:06:05.692Z,53.46
2019-06-27T04:11:14.978Z,53.54
2019-06-27T04:16:21.440Z,53.74
2019-06-27T04:21:28.268Z,53.01
2019-06-27T04:26:37.120Z,52.94
2019-06-27T04:31:42.732Z,53.07
2019-06-27T04:36:52.440Z,52.07
2019-06-27T04:42:00.333Z,51.45
2019-06-27T04:47:06.266Z,51.49
2019-06-27T04:52:16.864Z,51.07
2019-06-27T04:57:22.060Z,50.29
2019-06-27T05:02:32.124Z,50.78
2019-06-27T05:07:41.706Z,50.69
2019-06-27T05:12:50.628Z,50.86
2019-06-27T05:17:57.385Z,50.21
2019-06-27T05:23:06.461Z,49.78
2019-06-27T05:28:13.764Z,48.68
2019-06-27T05:33:20.176Z,48.46
2019-06-27T05:38:26.535Z,48.22
2019-06-27T05:43:33.344Z,48.88
2019-06-27T05:48:47.164Z,49.08
2019-06-27T05:53:56.314Z,49.50
2019-06-27T05:59:04.686Z,48.21
2019-06-27T06:04:11.168Z,48.99
2019-06-27T06:09:17.545Z,49.44
2019-06-27T06:14:23.099Z,48.97
2019-06-27T06:19:33.273Z,49.37
2019-06-27T06:24:46.459Z,50.14
2019-06-27T06:29:53.941Z,48.40
2019-06-27T06:35:04.124Z,47.84
2019-06-27T06:40:13.566Z,46.57
2019-06-27T06:45:20.275Z,47.46
2019-06-27T06:50:28.989Z,47.06
2019-06-27T06:55:34.624Z,48.20
2019-06-27T07:00:57.033Z,48.00
2019-06-27T07:05:50.582Z,46.22
2019-06-27T07:10:59.682Z,46.63
2019-06-27T07:16:11.713Z,45.91
2019-06-27T07:21:17.392Z,44.42
2019-06-27T07:26:26.725Z,44.80
2019-06-27T07:31:34.511Z,45.13
2019-06-27T07:36:41.378Z,45.20
2019-06-27T07:41:46.992Z,43.71
2019-06-27T07:46:57.502Z,44.36
2019-06-27T07:52:05.953Z,44.04
2019-06-27T07:57:12.567Z,44.02
2019-06-27T08:02:19.004Z,42.80
2019-06-27T08:07:24.069Z,43.22
2019-06-27T08:12:31.578Z,43.17
2019-06-27T08:17:40.928Z,42.63
2019-06-27T08:22:51.329Z,43.09
2019-06-27T08:27:57.024Z,42.71
2019-06-27T08:33:04.987Z,42.35
2019-06-27T08:38:11.156Z,42.01
2019-06-27T08:43:19.419Z,41.04
2019-06-27T08:48:25.757Z,41.86
2019-06-27T08:53:34.698Z,41.99
2019-06-27T08:58:42.300Z,41.20
2019-06-27T09:03:51.164Z,41.11
2019-06-27T09:08:59.554Z,41.88
2019-06-27T09:14:08.740Z,41.42
2019-06-27T09:19:17.114Z,40.61
2019-06-27T09:24:22.753Z,42.14
2019-06-27T09:29:29.980Z,41.97
2019-06-27T09:34:36.358Z,41.70
2019-06-27T09:39:42.694Z,40.70
2019-06-27T09:44:50.563Z,40.47
2019-06-27T09:53:59.780Z,39.82
2019-06-27T09:59:12.783Z,40.01
2019-06-27T10:04:26.274Z,39.68
2019-06-27T10:15:03.777Z,39.68
2019-06-27T10:20:14.975Z,39.48
2019-06-27T10:25:29.578Z,38.63
2019-06-27T10:30:38.882Z,38.31
2019-06-27T10:35:54.926Z,38.01
2019-06-27T10:41:05.227Z,37.98
2019-06-27T10:46:22.037Z,37.76
2019-06-27T10:51:53.311Z,37.51
2019-06-27T10:57:07.352Z,37.33
2019-06-27T11:02:22.604Z,37.42
2019-06-27T11:07:33.031Z,37.14
2019-06-27T11:12:52.673Z,36.80
2019-06-27T11:18:05.727Z,37.02
2019-06-27T11:23:14.210Z,37.16
2019-06-27T11:28:24.144Z,35.61
2019-06-27T11:33:37.507Z,37.16
2019-06-27T11:39:07.587Z,37.24
2019-06-27T11:44:19.468Z,36.89
2019-06-27T11:49:36.388Z,35.25
2019-06-27T11:55:05.222Z,36.10
2019-06-27T12:00:17.473Z,36.42
2019-06-27T12:05:25.852Z,36.28
2019-06-27T12:10:37.699Z,36.64
2019-06-27T12:15:51.838Z,36.60
2019-06-27T12:21:08.641Z,36.14
2019-06-27T12:26:38.422Z,36.09
2019-06-27T12:32:15.795Z,36.48
2019-06-27T12:37:28.734Z,36.55
2019-06-27T12:42:41.063Z,36.51
2019-06-27T12:47:54.917Z,36.29
2019-06-27T12:53:03.465Z,36.47
2019-06-27T12:58:16.052Z,36.37
2019-06-27T13:03:24.825Z,35.97
2019-06-27T13:08:35.260Z,35.45
2019-06-27T13:13:45.652Z,36.08
2019-06-27T13:19:01.748Z,35.76
2019-06-27T13:24:16.325Z,36.10
2019-06-27T13:29:35.726Z,36.38
2019-06-27T13:34:50.337Z,36.79
2019-06-27T13:40:04.755Z,36.82
2019-06-27T13:45:41.362Z,35.56
2019-06-27T13:50:53.266Z,34.73
2019-06-27T13:56:03.621Z,32.19
2019-06-27T14:01:15.412Z,29.77
2019-06-27T14:06:31.419Z,28.38
2019-06-27T14:11:45.807Z,28.58
2019-06-27T14:17:25.069Z,27.61
2019-06-27T14:22:39.880Z,27.12
2019-06-27T14:27:46.303Z,26.36
2019-06-27T14:32:58.938Z,26.14
2019-06-27T14:38:12.792Z,27.16
2019-06-27T14:43:23.430Z,31.51
2019-06-27T14:48:37.892Z,34.31
2019-06-27T14:53:51.120Z,35.54
2019-06-27T14:59:04.640Z,37.27
2019-06-27T15:04:23.727Z,37.06
2019-06-27T15:09:36.716Z,37.80
2019-06-27T15:14:52.965Z,37.24
2019-06-27T15:20:22.267Z,37.62
2019-06-27T15:26:09.352Z,38.07
2019-06-27T15:31:24.319Z,38.14
2019-06-27T15:36:42.976Z,37.99
2019-06-27T15:42:15.407Z,38.61
2019-06-27T15:47:31.172Z,38.98
2019-06-27T15:52:48.702Z,40.48
2019-06-27T15:57:59.168Z,40.27
2019-06-27T16:03:09.100Z,39.98
2019-06-27T16:08:23.441Z,40.07
2019-06-27T16:13:54.720Z,40.35
2019-06-27T16:19:05.957Z,40.26
2019-06-27T16:24:15.613Z,40.47
2019-06-27T16:29:28.717Z,40.74
2019-06-27T16:34:42.872Z,40.74
2019-06-27T16:39:58.607Z,40.61
2019-06-27T16:45:13.320Z,41.88
2019-06-27T16:50:23.399Z,41.80
2019-06-27T16:55:37.320Z,41.48
2019-06-27T17:01:12.335Z,41.90
2019-06-27T17:06:42.821Z,41.29
2019-06-27T17:11:55.840Z,41.29
2019-06-27T17:17:12.897Z,41.47
2019-06-27T17:22:35.641Z,41.81
2019-06-27T17:33:50.911Z,41.86
2019-06-27T17:39:04.679Z,41.39
2019-06-27T17:44:19.874Z,41.95
2019-06-27T17:49:32.448Z,42.14
2019-06-27T17:54:42.503Z,41.86
2019-06-27T18:00:00.815Z,41.88
2019-06-27T18:05:11.312Z,41.50
2019-06-27T18:10:28.387Z,42.61
2019-06-27T18:15:40.115Z,41.92
2019-06-27T18:20:52.975Z,41.52
2019-06-27T18:26:06.359Z,42.05
2019-06-27T18:31:24.946Z,42.53
2019-06-27T18:36:36.357Z,43.08
2019-06-27T18:42:11.319Z,42.86
2019-06-27T18:47:46.999Z,43.43
2019-06-27T18:53:04.667Z,44.15
2019-06-27T18:58:28.952Z,44.23
2019-06-27T19:04:25.059Z,43.18
2019-06-27T19:09:42.314Z,43.44
2019-06-27T19:14:52.025Z,44.27
2019-06-27T19:20:07.869Z,43.91
2019-06-27T19:25:35.553Z,44.13
2019-06-27T19:30:51.462Z,44.02
2019-06-27T19:36:04.824Z,44.67
2019-06-27T19:41:20.467Z,44.48
2019-06-27T19:46:34.160Z,45.67
2019-06-27T19:51:48.449Z,46.53
2019-06-27T19:56:59.559Z,46.61
2019-06-27T20:02:16.163Z,46.95
2019-06-27T20:07:22.907Z,46.75
2019-06-27T20:12:34.720Z,47.48
2019-06-27T20:17:41.684Z,48.08
2019-06-27T20:22:55.393Z,48.20
2019-06-27T20:28:05.340Z,48.27
2019-06-27T20:33:23.714Z,47.31
2019-06-27T20:38:40.453Z,48.51
2019-06-27T20:43:57.218Z,49.09
2019-06-27T20:49:09.417Z,49.73
2019-06-27T20:54:24.897Z,49.84
2019-06-27T20:59:59.380Z,49.50
2019-06-27T21:05:08.739Z,50.21
2019-06-27T21:10:56.424Z,50.01
2019-06-27T21:16:06.330Z,49.60
2019-06-27T21:21:17.272Z,49.93
2019-06-27T21:26:27.964Z,49.54
2019-06-27T21:31:42.104Z,49.82
2019-06-27T21:36:53.003Z,49.99
2019-06-27T21:42:07.367Z,50.39
2019-06-27T21:47:20.821Z,50.68
2019-06-27T21:52:34.500Z,50.40
2019-06-27T21:57:47.506Z,50.46
2019-06-27T22:03:35.645Z,51.38
2019-06-27T22:08:51.185Z,51.14
2019-06-27T22:14:00.593Z,51.47
2019-06-27T22:19:14.190Z,51.90
2019-06-27T22:24:24.929Z,51.78
2019-06-27T22:29:36.710Z,51.34
2019-06-27T22:34:51.507Z,51.47
2019-06-27T22:40:18.394Z,51.10
2019-06-27T22:45:51.364Z,51.09
2019-06-27T22:51:35.622Z,51.67
2019-06-27T22:56:52.267Z,52.09
2019-06-27T23:02:08.380Z,51.90
2019-06-27T23:07:24.868Z,50.54
2019-06-27T23:12:43.123Z,51.15
2019-06-27T23:17:55.333Z,51.25
2019-06-27T23:23:06.913Z,51.43
2019-06-27T23:28:19.397Z,51.86
2019-06-27T23:33:40.060Z,52.11
2019-06-27T23:38:56.770Z,52.19
2019-06-27T23:44:15.636Z,52.23
2019-06-27T23:49:46.596Z,52.24
2019-06-27T23:55:01.798Z,52.15
